Jacobson, Minnesota
Current Conditions -  °F | °C
As of 2:15 AM on Monday 26 Jan 2015 (Local Time) from KGPZ Reporting Station
Overcast Overcast  
Wind Chill: 11°   Ceiling: 1800
Heat Index: 21°   Visibility: 8mi
Dew Point: 18°   Wind: 9mph
Humidity: 86%   Direction: 180°S
Pressure: 29.72"   Gusts: NA
Location:  47°N, 93.27°W
Report Text: KGPZ 260815Z AUTO 18008KT 8SM FEW010 OVC018 M06/M08 A2972 RMK AO1
Loading
Personal Weather Stations






























Interactive Weather Map New forecast layout! Learn more

10-Day Weather Forecast

Advertisements
Track Severe Weather on mobile